Aérodrome :
LOGIN :

S'inscrire | Disclaimer

   EN    FR    IT 

 










Légende :    VFR   VFR Marginal   IFR   IFR Intensif   IFR Très Intensif
Visi : 
Plafond : 
>= 8 km
>= 3000ft
5 à 8 km
1000 à 3000 ft
1500m à 5 km
500 à 1000 ft
800 à 1500m
200 à 500 ft
< 800m
< 200 ft
Symboles :   Orages  Brouillard  Fortes neiges  Fortes précipitations  Vent > 20 kt
SIGMETs :   Divers  Orages  Givrage  Turbulence  Onde Orograph.  Cendres Volcan.







- Altitude de l'aérodrome : 374 ft
- Code IATA : LIS


LPPT - Lisboa Portela

DERNIER METAR :
  • 181500Z 21016KT 9999 BKN012 21/17 Q1014

METARs EXPIRÉS :
  • 181430Z 21017KT 9999 SCT013 BKN016 21/17 Q1014
  • 181400Z 20019KT 9999 FEW012 BKN016 21/17 Q1014
  • 181330Z 21017KT 9999 FEW012 BKN018 21/17 Q1014
  • 181300Z 21022KT 9999 SCT014 SCT018 22/16 Q1014
  • 181230Z 21019KT 9999 BKN014 22/17 Q1014

TAF TAF LPPT
Valide du 18 à 12h jusqu'au 19 à 18h UTC


181100Z 1812/1918 20018KT 9999 SCT008 BKN012
BECMG 1812/1814 SCT020
BECMG 1816/1818 21008KT SCT006 SCT012
BECMG 1818/1821 SCT004 BKN008
PROB40
TEMPO 1821/1908 1200 DZRA BR BKN003
BECMG 1908/1911 FEW015 BKN025
BECMG 1916/1918 27007KT SCT020
Pas de NOTAMs connus pour ce terrain.



MET'MAP, la Météo Aéronautique d'un coup d'oeil ! - Copyright ORBIFLY Décembre 2007 - Disclaimer

ORBIFLY MET'MAP TEAM :

Programmation & Développement : Alexandra Zaïnal
Conception & Développement : Baudouin d'Aumeries
Co-Programmation & Développement : Marc-Olivier Méhu
Soutien technique & logistique : Manuel Goepfert

Contact : metmap@orbifly.com




SOURCES & CREDITS :

   NOAA